createdAt,value
2017-11-14T00:00:31.377Z,4.16
2017-11-14T00:01:31.371Z,4.09
2017-11-14T00:02:31.710Z,4.14
2017-11-14T00:03:31.821Z,4.2
2017-11-14T00:04:31.014Z,4.21
2017-11-14T00:05:31.750Z,4.24
2017-11-14T00:06:31.329Z,4.18
2017-11-14T00:07:31.631Z,4.24
2017-11-14T00:08:31.427Z,4.25
2017-11-14T00:09:31.615Z,4.18
2017-11-14T00:10:31.278Z,4.18
2017-11-14T00:11:31.590Z,4.03
2017-11-14T00:12:31.586Z,4.18
2017-11-14T00:13:31.575Z,4.14
2017-11-14T00:14:31.242Z,4.07
2017-11-14T00:15:31.550Z,4.1
2017-11-14T00:16:31.541Z,4.02
2017-11-14T00:17:31.542Z,4.04
2017-11-14T00:18:31.194Z,4.04
2017-11-14T00:19:31.192Z,4.06
2017-11-14T00:20:31.504Z,4.03
2017-11-14T00:21:31.167Z,4.02
2017-11-14T00:22:31.485Z,3.95
2017-11-14T00:23:31.465Z,4.03
2017-11-14T00:24:31.234Z,4.03
2017-11-14T00:25:31.451Z,3.94
2017-11-14T00:26:31.436Z,4.06
2017-11-14T00:27:31.105Z,4.06
2017-11-14T00:28:31.248Z,4
2017-11-14T00:29:31.083Z,4.07
2017-11-14T00:30:31.407Z,4.1
2017-11-14T00:31:31.066Z,4.1
2017-11-14T00:32:31.380Z,4.04
2017-11-14T00:33:31.047Z,4.04
2017-11-14T00:34:31.038Z,4.06
2017-11-14T00:35:31.037Z,4.06
2017-11-14T00:36:31.334Z,4.04
2017-11-14T00:37:31.004Z,4.03
2017-11-14T00:38:30.992Z,4.04
2017-11-14T00:39:30.983Z,3.94
2017-11-14T00:40:30.977Z,3.95
2017-11-14T00:41:31.291Z,3.96
2017-11-14T00:42:30.966Z,3.89
2017-11-14T00:43:31.266Z,3.88
2017-11-14T00:44:31.261Z,3.86
2017-11-14T00:45:31.244Z,3.89
2017-11-14T00:46:31.245Z,3.99
2017-11-14T00:47:30.900Z,3.92
2017-11-14T00:48:31.217Z,3.89
2017-11-14T00:49:31.210Z,3.92
2017-11-14T00:50:31.203Z,4
2017-11-14T00:51:31.219Z,3.86
2017-11-14T00:52:31.176Z,3.85
2017-11-14T00:53:31.164Z,3.91
2017-11-14T00:54:31.152Z,3.89
2017-11-14T00:55:31.144Z,3.76
2017-11-14T00:56:31.136Z,3.77
2017-11-14T00:57:31.171Z,3.88
2017-11-14T00:58:30.890Z,3.86
2017-11-14T00:59:31.109Z,3.76
2017-11-14T01:00:30.545Z,3.82
2017-11-14T01:01:30.761Z,3.76
2017-11-14T01:02:30.751Z,3.77
2017-11-14T01:03:31.068Z,3.85
2017-11-14T01:04:31.057Z,3.81
2017-11-14T01:05:31.192Z,3.86
2017-11-14T01:06:31.032Z,3.81
2017-11-14T01:07:31.020Z,3.78
2017-11-14T01:08:30.689Z,3.86
2017-11-14T01:09:30.680Z,3.89
2017-11-14T01:10:30.996Z,3.85
2017-11-14T01:11:30.984Z,3.85
2017-11-14T01:12:30.975Z,3.84
2017-11-14T01:13:30.959Z,3.85
2017-11-14T01:14:30.966Z,3.78
2017-11-14T01:15:30.618Z,3.78
2017-11-14T01:16:30.932Z,3.84
2017-11-14T01:17:31.024Z,3.89
2017-11-14T01:18:30.911Z,3.86
2017-11-14T01:19:30.899Z,3.85
2017-11-14T01:20:30.887Z,3.91
2017-11-14T01:21:30.557Z,3.89
2017-11-14T01:22:30.874Z,3.77
2017-11-14T01:23:30.574Z,3.78
2017-11-14T01:24:30.850Z,3.77
2017-11-14T01:25:30.521Z,3.85
2017-11-14T01:26:30.510Z,3.85
2017-11-14T01:27:30.834Z,3.92
2017-11-14T01:28:30.482Z,3.77
2017-11-14T01:29:30.799Z,3.81
2017-11-14T01:30:30.562Z,3.74
2017-11-14T01:31:30.457Z,3.78
2017-11-14T01:32:30.792Z,3.73
2017-11-14T01:33:30.436Z,3.77
2017-11-14T01:34:30.746Z,3.77
2017-11-14T01:35:30.837Z,3.77
2017-11-14T01:36:30.428Z,3.76
2017-11-14T01:37:30.069Z,3.73
2017-11-14T01:38:30.382Z,3.64
2017-11-14T01:39:30.808Z,3.82
2017-11-14T01:40:30.360Z,3.76
2017-11-14T01:41:30.353Z,3.66
2017-11-14T01:42:30.341Z,3.77
2017-11-14T01:43:30.667Z,3.78
2017-11-14T01:44:30.324Z,3.78
2017-11-14T01:45:30.089Z,3.82
2017-11-14T01:46:30.627Z,3.84
2017-11-14T01:47:30.298Z,3.86
2017-11-14T01:48:30.284Z,3.74
2017-11-14T01:49:30.705Z,3.81
2017-11-14T01:50:30.586Z,3.78
2017-11-14T01:51:30.579Z,3.76
2017-11-14T01:52:30.605Z,3.76
2017-11-14T01:53:30.235Z,3.77
2017-11-14T01:54:30.249Z,3.76
2017-11-14T01:55:30.211Z,3.81
2017-11-14T01:56:30.201Z,3.78
2017-11-14T01:57:30.191Z,3.73
2017-11-14T01:58:30.502Z,3.77
2017-11-14T01:59:30.169Z,3.74
2017-11-14T02:00:30.355Z,3.77
2017-11-14T02:01:30.469Z,3.81
2017-11-14T02:02:30.238Z,3.77
2017-11-14T02:03:29.807Z,3.78
2017-11-14T02:04:30.546Z,3.73
2017-11-14T02:05:30.107Z,3.86
2017-11-14T02:06:30.423Z,3.73
2017-11-14T02:07:30.414Z,3.7
2017-11-14T02:08:30.428Z,3.77
2017-11-14T02:09:30.392Z,3.82
2017-11-14T02:10:30.378Z,3.71
2017-11-14T02:11:30.472Z,3.78
2017-11-14T02:12:30.358Z,3.84
2017-11-14T02:13:30.352Z,3.76
2017-11-14T02:14:30.338Z,3.74
2017-11-14T02:15:30.325Z,3.76
2017-11-14T02:16:30.319Z,3.77
2017-11-14T02:17:30.312Z,3.76
2017-11-14T02:18:30.299Z,3.74
2017-11-14T02:19:29.965Z,3.7
2017-11-14T02:20:30.277Z,3.64
2017-11-14T02:21:30.273Z,3.64
2017-11-14T02:22:30.260Z,3.67
2017-11-14T02:23:29.924Z,3.71
2017-11-14T02:24:30.015Z,3.71
2017-11-14T02:25:30.231Z,3.64
2017-11-14T02:26:30.216Z,3.77
2017-11-14T02:27:30.215Z,3.67
2017-11-14T02:28:30.201Z,3.76
2017-11-14T02:29:30.346Z,3.63
2017-11-14T02:30:29.627Z,3.77
2017-11-14T02:31:30.164Z,3.64
2017-11-14T02:32:29.836Z,3.7
2017-11-14T02:33:30.153Z,3.73
2017-11-14T02:34:30.140Z,3.71
2017-11-14T02:35:30.134Z,3.61
2017-11-14T02:36:30.126Z,3.67
2017-11-14T02:37:29.788Z,3.64
2017-11-14T02:38:29.773Z,3.66
2017-11-14T02:39:30.086Z,3.63
2017-11-14T02:40:30.069Z,3.64
2017-11-14T02:41:29.738Z,3.67
2017-11-14T02:42:30.170Z,3.67
2017-11-14T02:43:29.718Z,3.66
2017-11-14T02:44:29.706Z,3.63
2017-11-14T02:45:30.021Z,3.58
2017-11-14T02:46:29.687Z,3.66
2017-11-14T02:47:29.997Z,3.67
2017-11-14T02:48:29.668Z,3.76
2017-11-14T02:49:29.998Z,3.59
2017-11-14T02:50:29.983Z,3.67
2017-11-14T02:51:29.636Z,3.67
2017-11-14T02:52:29.954Z,3.64
2017-11-14T02:53:29.945Z,3.67
2017-11-14T02:54:29.608Z,3.7
2017-11-14T02:55:29.945Z,3.76
2017-11-14T02:56:29.913Z,3.74
2017-11-14T02:57:30.002Z,3.81
2017-11-14T02:58:29.889Z,3.74
2017-11-14T02:59:29.903Z,3.66
2017-11-14T03:00:29.877Z,3.61
2017-11-14T03:01:29.861Z,3.61
2017-11-14T03:02:29.851Z,3.71
2017-11-14T03:03:29.514Z,3.7
2017-11-14T03:04:29.840Z,3.68
2017-11-14T03:05:29.497Z,3.64
2017-11-14T03:06:29.582Z,3.64
2017-11-14T03:07:29.811Z,3.68
2017-11-14T03:08:29.784Z,3.61
2017-11-14T03:09:29.450Z,3.58
2017-11-14T03:10:29.441Z,3.55
2017-11-14T03:11:29.441Z,3.58
2017-11-14T03:12:29.751Z,3.52
2017-11-14T03:13:29.412Z,3.48
2017-11-14T03:14:29.721Z,3.41
2017-11-14T03:15:29.390Z,3.3
2017-11-14T03:16:29.383Z,3.41
2017-11-14T03:17:29.790Z,3.41
2017-11-14T03:18:29.683Z,3.3
2017-11-14T03:19:29.672Z,3.43
2017-11-14T03:20:29.342Z,3.31
2017-11-14T03:21:29.651Z,3.41
2017-11-14T03:22:29.754Z,3.36
2017-11-14T03:23:29.321Z,3.3
2017-11-14T03:24:29.624Z,3.33
2017-11-14T03:25:29.608Z,3.33
2017-11-14T03:26:29.608Z,3.36
2017-11-14T03:27:29.597Z,3.34
2017-11-14T03:28:29.580Z,3.31
2017-11-14T03:29:29.574Z,3.34
2017-11-14T03:30:29.580Z,3.31
2017-11-14T03:31:29.565Z,3.34
2017-11-14T03:32:29.588Z,3.27
2017-11-14T03:33:29.624Z,3.36
2017-11-14T03:34:29.515Z,3.24
2017-11-14T03:35:29.285Z,3.31
2017-11-14T03:36:29.500Z,3.21
2017-11-14T03:37:29.161Z,3.22
2017-11-14T03:38:29.253Z,3.16
2017-11-14T03:39:29.565Z,3.15
2017-11-14T03:40:29.457Z,3.22
2017-11-14T03:41:29.456Z,3.15
2017-11-14T03:42:29.438Z,3.09
2017-11-14T03:43:29.102Z,3.06
2017-11-14T03:44:29.415Z,3.16
2017-11-14T03:45:29.077Z,3.15
2017-11-14T03:46:29.068Z,3.08
2017-11-14T03:47:28.736Z,3.18
2017-11-14T03:48:29.374Z,3.18
2017-11-14T03:49:29.041Z,3.13
2017-11-14T03:50:29.364Z,3.18
2017-11-14T03:51:29.023Z,3.19
2017-11-14T03:52:29.335Z,3.11
2017-11-14T03:53:29.322Z,3.18
2017-11-14T03:54:29.321Z,3.19
2017-11-14T03:55:28.979Z,3.18
2017-11-14T03:56:29.292Z,3.12
2017-11-14T03:57:29.295Z,3.15
2017-11-14T03:58:28.952Z,3.12
2017-11-14T03:59:29.264Z,3.16
2017-11-14T04:00:29.253Z,3.22
2017-11-14T04:01:29.013Z,3.19
2017-11-14T04:02:29.228Z,3.16
2017-11-14T04:03:28.893Z,3.19
2017-11-14T04:04:29.207Z,3.12
2017-11-14T04:05:28.874Z,3.22
2017-11-14T04:06:29.196Z,3.15
2017-11-14T04:07:29.178Z,3.16
2017-11-14T04:08:29.164Z,3.16
2017-11-14T04:09:28.832Z,3.01
2017-11-14T04:10:28.594Z,3.11
2017-11-14T04:11:28.493Z,3.13
2017-11-14T04:12:29.126Z,3.03
2017-11-14T04:13:28.792Z,3.09
2017-11-14T04:14:29.267Z,3.03
2017-11-14T04:15:28.771Z,3.08
2017-11-14T04:16:29.112Z,3.03
2017-11-14T04:17:29.068Z,3.01
2017-11-14T04:18:29.056Z,3.01
2017-11-14T04:19:29.058Z,3.05
2017-11-14T04:20:29.046Z,3.11
2017-11-14T04:21:28.811Z,3.03
2017-11-14T04:22:29.019Z,3
2017-11-14T04:23:29.025Z,3.09
2017-11-14T04:24:29.163Z,3.03
2017-11-14T04:25:28.991Z,3.05
2017-11-14T04:26:28.976Z,3.03
2017-11-14T04:27:28.645Z,2.94
2017-11-14T04:28:28.310Z,3.08
2017-11-14T04:29:28.961Z,2.98
2017-11-14T04:30:28.610Z,3
2017-11-14T04:31:28.929Z,3.01
2017-11-14T04:32:28.588Z,2.95
2017-11-14T04:33:28.910Z,3.09
2017-11-14T04:34:28.688Z,2.98
2017-11-14T04:35:28.886Z,3.01
2017-11-14T04:36:28.551Z,2.97
2017-11-14T04:37:28.216Z,2.97
2017-11-14T04:38:28.855Z,3.01
2017-11-14T04:39:28.517Z,3.08
2017-11-14T04:40:28.509Z,3.06
2017-11-14T04:41:28.838Z,3.06
2017-11-14T04:42:28.489Z,3.11
2017-11-14T04:43:28.805Z,3.16
2017-11-14T04:44:28.790Z,3.08
2017-11-14T04:45:28.791Z,3.16
2017-11-14T04:46:28.446Z,3.16
2017-11-14T04:47:28.761Z,3.13
2017-11-14T04:48:28.533Z,3.09
2017-11-14T04:49:28.737Z,3.11
2017-11-14T04:50:28.410Z,3.11
2017-11-14T04:51:28.718Z,2.97
2017-11-14T04:52:28.708Z,3.05
2017-11-14T04:53:28.697Z,2.97
2017-11-14T04:54:28.787Z,3.01
2017-11-14T04:55:28.800Z,3.08
2017-11-14T04:56:28.708Z,3.03
2017-11-14T04:57:28.355Z,3.01
2017-11-14T04:58:28.646Z,3.08
2017-11-14T04:59:28.314Z,3.03
2017-11-14T05:00:28.630Z,3.06
2017-11-14T05:01:28.614Z,2.9
2017-11-14T05:02:28.606Z,2.91
2017-11-14T05:03:28.594Z,2.95
2017-11-14T05:04:28.689Z,2.98
2017-11-14T05:05:28.250Z,3.05
2017-11-14T05:06:28.564Z,3.05
2017-11-14T05:07:28.552Z,3.05
2017-11-14T05:08:27.896Z,3.06
2017-11-14T05:09:28.539Z,2.94
2017-11-14T05:10:27.883Z,2.97
2017-11-14T05:11:28.563Z,3.01
2017-11-14T05:12:28.500Z,2.95
2017-11-14T05:13:28.489Z,2.98
2017-11-14T05:14:28.480Z,3.01
2017-11-14T05:15:28.146Z,3.05
2017-11-14T05:16:28.461Z,3.05
2017-11-14T05:17:28.126Z,3.03
2017-11-14T05:18:28.453Z,2.94
2017-11-14T05:19:28.430Z,3
2017-11-14T05:20:28.420Z,2.94
2017-11-14T05:21:28.503Z,3.06
2017-11-14T05:22:28.401Z,2.9
2017-11-14T05:23:28.383Z,2.95
2017-11-14T05:24:28.376Z,3
2017-11-14T05:25:28.045Z,3.05
2017-11-14T05:26:28.032Z,2.93
2017-11-14T05:27:28.345Z,2.98
2017-11-14T05:28:28.330Z,3
2017-11-14T05:29:28.321Z,3.05
2017-11-14T05:30:28.421Z,3.11
2017-11-14T05:31:27.975Z,3.03
2017-11-14T05:32:28.397Z,3
2017-11-14T05:33:28.278Z,2.94
2017-11-14T05:34:27.944Z,2.97
2017-11-14T05:35:27.958Z,2.91
2017-11-14T05:36:27.606Z,2.8
2017-11-14T05:37:27.916Z,2.9
2017-11-14T05:38:28.109Z,2.73
2017-11-14T05:39:28.214Z,2.76
2017-11-14T05:40:28.210Z,2.87
2017-11-14T05:41:28.199Z,2.83
2017-11-14T05:42:28.200Z,2.85
2017-11-14T05:43:28.178Z,2.88
2017-11-14T05:44:28.173Z,2.9
2017-11-14T05:45:28.155Z,2.87
2017-11-14T05:46:28.254Z,2.93
2017-11-14T05:47:28.142Z,2.88
2017-11-14T05:48:28.229Z,3.05
2017-11-14T05:49:27.464Z,2.9
2017-11-14T05:50:27.879Z,2.91
2017-11-14T05:51:28.095Z,2.9
2017-11-14T05:52:27.764Z,2.87
2017-11-14T05:53:27.747Z,2.77
2017-11-14T05:54:27.742Z,2.77
2017-11-14T05:55:27.404Z,2.8
2017-11-14T05:56:27.716Z,2.73
2017-11-14T05:57:28.028Z,2.8
2017-11-14T05:58:28.038Z,2.77
2017-11-14T05:59:27.703Z,2.77
2017-11-14T06:00:28.000Z,2.76
2017-11-14T06:01:27.992Z,2.77
2017-11-14T06:02:27.989Z,2.79
2017-11-14T06:03:27.970Z,2.83
2017-11-14T06:04:27.630Z,2.79
2017-11-14T06:05:27.635Z,2.68
2017-11-14T06:06:27.971Z,2.59
2017-11-14T06:07:27.925Z,2.68
2017-11-14T06:08:27.590Z,2.59
2017-11-14T06:09:27.910Z,2.61
2017-11-14T06:10:27.892Z,2.55
2017-11-14T06:11:27.882Z,2.5
2017-11-14T06:12:27.887Z,2.58
2017-11-14T06:13:27.364Z,2.61
2017-11-14T06:14:27.852Z,2.59
2017-11-14T06:15:27.846Z,2.57
2017-11-14T06:16:27.183Z,2.59
2017-11-14T06:17:27.495Z,2.57
2017-11-14T06:18:27.808Z,2.7
2017-11-14T06:19:27.803Z,2.62
2017-11-14T06:20:27.790Z,2.68
2017-11-14T06:21:27.455Z,2.64
2017-11-14T06:22:27.445Z,2.76
2017-11-14T06:23:27.759Z,2.65
2017-11-14T06:24:27.746Z,2.72
2017-11-14T06:25:27.739Z,2.7
2017-11-14T06:26:27.745Z,2.61
2017-11-14T06:27:27.720Z,2.69
2017-11-14T06:28:27.382Z,2.62
2017-11-14T06:29:27.370Z,2.59
2017-11-14T06:30:27.360Z,2.64
2017-11-14T06:31:27.675Z,2.59
2017-11-14T06:32:27.441Z,2.54
2017-11-14T06:33:27.664Z,2.57
2017-11-14T06:34:27.643Z,2.5
2017-11-14T06:35:27.630Z,2.46
2017-11-14T06:36:27.399Z,2.46
2017-11-14T06:37:27.630Z,2.4
2017-11-14T06:38:27.278Z,2.5
2017-11-14T06:39:27.265Z,2.43
2017-11-14T06:40:27.584Z,2.54
2017-11-14T06:41:26.922Z,2.59
2017-11-14T06:42:27.238Z,2.64
2017-11-14T06:43:27.556Z,2.57
2017-11-14T06:44:27.222Z,2.64
2017-11-14T06:45:27.521Z,2.7
2017-11-14T06:46:27.518Z,2.64
2017-11-14T06:47:27.506Z,2.69
2017-11-14T06:48:27.513Z,2.79
2017-11-14T06:49:27.483Z,2.64
2017-11-14T06:50:27.151Z,2.77
2017-11-14T06:51:27.246Z,2.76
2017-11-14T06:52:27.154Z,2.87
2017-11-14T06:53:27.446Z,2.75
2017-11-14T06:54:27.119Z,2.8
2017-11-14T06:55:27.438Z,2.83
2017-11-14T06:56:27.416Z,2.73
2017-11-14T06:57:27.076Z,2.76
2017-11-14T06:58:27.095Z,2.79
2017-11-14T06:59:27.380Z,2.68
2017-11-14T07:00:27.385Z,2.68
2017-11-14T07:01:27.035Z,2.68
2017-11-14T07:02:27.350Z,2.58
2017-11-14T07:03:27.337Z,2.79
2017-11-14T07:04:27.007Z,2.79
2017-11-14T07:05:27.314Z,2.73
2017-11-14T07:06:27.308Z,2.76
2017-11-14T07:07:26.648Z,2.9
2017-11-14T07:08:26.963Z,2.85
2017-11-14T07:09:26.629Z,2.87
2017-11-14T07:10:26.940Z,2.9
2017-11-14T07:11:27.352Z,2.95
2017-11-14T07:12:26.940Z,3.01
2017-11-14T07:13:27.450Z,2.97
2017-11-14T07:14:27.224Z,3.01
2017-11-14T07:15:26.891Z,3.05
2017-11-14T07:16:27.206Z,3.03
2017-11-14T07:17:26.873Z,3.06
2017-11-14T07:18:26.532Z,3.01
2017-11-14T07:19:27.185Z,3.08
2017-11-14T07:20:26.519Z,3.13
2017-11-14T07:21:27.147Z,3.15
2017-11-14T07:22:27.141Z,3.16
2017-11-14T07:23:26.805Z,3.19
2017-11-14T07:24:26.794Z,3.21
2017-11-14T07:25:26.803Z,3.29
2017-11-14T07:26:26.774Z,3.29
2017-11-14T07:27:27.101Z,3.26
2017-11-14T07:28:27.174Z,3.24
2017-11-14T07:29:27.063Z,3.33
2017-11-14T07:30:26.408Z,3.41
2017-11-14T07:31:27.045Z,3.37
2017-11-14T07:32:26.715Z,3.43
2017-11-14T07:33:26.695Z,3.33
2017-11-14T07:34:27.119Z,3.3
2017-11-14T07:35:26.675Z,3.29
2017-11-14T07:36:26.675Z,3.31
2017-11-14T07:37:26.983Z,3.45
2017-11-14T07:38:26.971Z,3.36
2017-11-14T07:39:27.112Z,3.24
2017-11-14T07:40:26.623Z,3.22
2017-11-14T07:41:26.947Z,3.33
2017-11-14T07:42:26.931Z,3.33
2017-11-14T07:43:26.916Z,3.33
2017-11-14T07:44:26.955Z,3.3
2017-11-14T07:45:26.896Z,3.37
2017-11-14T07:46:26.562Z,3.27
2017-11-14T07:47:26.880Z,3.31
2017-11-14T07:48:26.869Z,3.45
2017-11-14T07:49:26.855Z,3.41
2017-11-14T07:50:26.845Z,3.36
2017-11-14T07:51:26.982Z,3.5
2017-11-14T07:52:26.828Z,3.52
2017-11-14T07:53:26.820Z,3.49
2017-11-14T07:54:26.807Z,3.59
2017-11-14T07:55:26.805Z,3.59
2017-11-14T07:56:26.466Z,3.66
2017-11-14T07:57:26.449Z,3.67
2017-11-14T07:58:26.762Z,3.67
2017-11-14T07:59:26.754Z,3.73
2017-11-14T08:00:26.741Z,3.77
2017-11-14T08:01:26.086Z,3.74
2017-11-14T08:02:26.400Z,3.81
2017-11-14T08:03:26.713Z,3.84
2017-11-14T08:04:26.701Z,3.84
2017-11-14T08:05:26.365Z,3.88
2017-11-14T08:06:26.353Z,3.94
2017-11-14T08:07:26.348Z,4
2017-11-14T08:08:26.692Z,4.03
2017-11-14T08:09:26.321Z,4.04
2017-11-14T08:10:26.639Z,4.06
2017-11-14T08:11:26.305Z,4.16
2017-11-14T08:12:26.618Z,4.04
2017-11-14T08:13:26.606Z,4.22
2017-11-14T08:14:26.641Z,4.21
2017-11-14T08:15:26.586Z,4.25
2017-11-14T08:16:26.354Z,4.24
2017-11-14T08:17:26.565Z,4.27
2017-11-14T08:18:26.555Z,4.27
2017-11-14T08:19:26.643Z,4.25
2017-11-14T08:20:26.544Z,4.34
2017-11-14T08:21:26.198Z,4.38
2017-11-14T08:22:25.871Z,4.36
2017-11-14T08:23:26.502Z,4.36
2017-11-14T08:24:26.265Z,4.48
2017-11-14T08:25:26.488Z,4.4
2017-11-14T08:26:26.148Z,4.36
2017-11-14T08:27:26.561Z,4.38
2017-11-14T08:28:26.128Z,4.4
2017-11-14T08:29:26.115Z,4.39
2017-11-14T08:30:26.109Z,4.22
2017-11-14T08:31:26.095Z,4.24
2017-11-14T08:32:26.084Z,4.24
2017-11-14T08:33:26.076Z,4.21
2017-11-14T08:34:26.387Z,4.22
2017-11-14T08:35:25.729Z,4.2
2017-11-14T08:36:26.043Z,4.32
2017-11-14T08:37:26.041Z,4.31
2017-11-14T08:38:26.020Z,4.28
2017-11-14T08:39:26.345Z,4.24
2017-11-14T08:40:26.001Z,4.2
2017-11-14T08:41:26.320Z,4.06
2017-11-14T08:42:25.979Z,4
2017-11-14T08:43:26.398Z,3.78
2017-11-14T08:44:26.283Z,3.76
2017-11-14T08:45:26.271Z,3.85
2017-11-14T08:46:26.261Z,3.82
2017-11-14T08:47:26.303Z,3.76
2017-11-14T08:48:26.243Z,3.76
2017-11-14T08:49:26.235Z,3.81
2017-11-14T08:50:26.221Z,3.77
2017-11-14T08:51:25.887Z,3.86
2017-11-14T08:52:26.216Z,3.94
2017-11-14T08:53:26.192Z,3.91
2017-11-14T08:54:26.182Z,3.99
2017-11-14T08:55:25.527Z,4.04
2017-11-14T08:56:25.834Z,4.13
2017-11-14T08:57:25.868Z,4.2
2017-11-14T08:58:26.138Z,4.25
2017-11-14T08:59:26.287Z,4.22
2017-11-14T09:00:25.794Z,4.28
2017-11-14T09:01:25.787Z,4.28
2017-11-14T09:02:25.784Z,4.38
2017-11-14T09:03:26.100Z,4.42
2017-11-14T09:04:26.084Z,4.49
2017-11-14T09:05:26.067Z,4.4
2017-11-14T09:06:26.069Z,4.49
2017-11-14T09:07:26.144Z,4.39
2017-11-14T09:08:26.291Z,4.42
2017-11-14T09:09:26.049Z,4.32
2017-11-14T09:10:26.021Z,4.38
2017-11-14T09:11:25.782Z,4.4
2017-11-14T09:12:25.995Z,4.45
2017-11-14T09:13:25.659Z,4.38
2017-11-14T09:14:26.026Z,4.43
2017-11-14T09:15:25.643Z,4.42
2017-11-14T09:16:25.649Z,4.48
2017-11-14T09:17:25.951Z,4.43
2017-11-14T09:18:25.939Z,4.6
2017-11-14T09:19:26.030Z,4.61
2017-11-14T09:20:25.914Z,4.64
2017-11-14T09:21:25.898Z,4.75
2017-11-14T09:22:25.899Z,4.74
2017-11-14T09:23:25.880Z,4.71
2017-11-14T09:24:25.894Z,4.66
2017-11-14T09:25:25.643Z,4.68
2017-11-14T09:26:25.883Z,4.7
2017-11-14T09:27:25.843Z,4.7
2017-11-14T09:28:25.506Z,4.78
2017-11-14T09:29:25.821Z,4.66
2017-11-14T09:30:25.817Z,4.71
2017-11-14T09:31:25.805Z,4.67
2017-11-14T09:32:25.899Z,4.7
2017-11-14T09:33:25.455Z,4.75
2017-11-14T09:34:25.771Z,4.79
2017-11-14T09:35:25.433Z,4.87
2017-11-14T09:36:25.578Z,4.94
2017-11-14T09:37:25.424Z,5.13
2017-11-14T09:38:25.727Z,5.25
2017-11-14T09:39:25.493Z,5.28
2017-11-14T09:40:25.706Z,5.44
2017-11-14T09:41:25.698Z,5.44
2017-11-14T09:42:25.364Z,5.41
2017-11-14T09:43:25.686Z,5.44
2017-11-14T09:44:25.673Z,5.56
2017-11-14T09:45:25.335Z,5.58
2017-11-14T09:46:25.648Z,5.58
2017-11-14T09:47:25.638Z,5.79
2017-11-14T09:48:25.724Z,5.73
2017-11-14T09:49:25.617Z,5.8
2017-11-14T09:50:25.380Z,5.79
2017-11-14T09:51:25.699Z,5.8
2017-11-14T09:52:25.586Z,5.9
2017-11-14T09:53:25.590Z,5.87
2017-11-14T09:54:25.568Z,5.83
2017-11-14T09:55:25.230Z,5.91
2017-11-14T09:56:25.550Z,5.88
2017-11-14T09:57:25.531Z,5.94
2017-11-14T09:58:25.532Z,5.91
2017-11-14T09:59:25.534Z,5.97
2017-11-14T10:00:25.183Z,5.91
2017-11-14T10:01:25.271Z,5.81
2017-11-14T10:02:25.483Z,5.84
2017-11-14T10:03:25.150Z,5.84
2017-11-14T10:04:25.465Z,5.95
2017-11-14T10:05:25.462Z,5.9
2017-11-14T10:06:25.119Z,5.99
2017-11-14T10:07:25.534Z,5.84
2017-11-14T10:08:25.419Z,5.9
2017-11-14T10:09:25.092Z,5.84
2017-11-14T10:10:25.406Z,5.95
2017-11-14T10:11:25.498Z,5.98
2017-11-14T10:12:25.381Z,5.95
2017-11-14T10:13:25.380Z,6.09
2017-11-14T10:14:25.370Z,6.06
2017-11-14T10:15:25.455Z,6.16
2017-11-14T10:16:25.346Z,6.2
2017-11-14T10:17:25.006Z,6.34
2017-11-14T10:18:25.331Z,6.28
2017-11-14T10:19:25.415Z,6.34
2017-11-14T10:20:25.304Z,6.35
2017-11-14T10:21:25.299Z,6.34
2017-11-14T10:22:25.276Z,6.46
2017-11-14T10:23:24.946Z,6.5
2017-11-14T10:24:24.937Z,6.52
2017-11-14T10:25:25.276Z,6.49
2017-11-14T10:26:24.920Z,6.49
2017-11-14T10:27:25.239Z,6.57
2017-11-14T10:28:25.228Z,6.49
2017-11-14T10:29:25.207Z,6.52
2017-11-14T10:30:24.651Z,6.64
2017-11-14T10:31:25.193Z,6.53
2017-11-14T10:32:24.860Z,6.5
2017-11-14T10:33:25.181Z,6.59
2017-11-14T10:34:25.258Z,6.65
2017-11-14T10:35:25.159Z,6.65
2017-11-14T10:36:25.151Z,6.57
2017-11-14T10:37:24.802Z,6.59
2017-11-14T10:38:25.122Z,6.57
2017-11-14T10:39:25.110Z,6.65
2017-11-14T10:40:24.776Z,6.64
2017-11-14T10:41:25.128Z,6.64
2017-11-14T10:42:25.073Z,6.6
2017-11-14T10:43:24.845Z,6.7
2017-11-14T10:44:25.311Z,6.7
2017-11-14T10:45:25.150Z,6.64
2017-11-14T10:46:25.037Z,6.68
2017-11-14T10:47:25.030Z,6.72
2017-11-14T10:48:25.016Z,6.7
2017-11-14T10:49:25.006Z,6.67
2017-11-14T10:50:25.000Z,6.72
2017-11-14T10:51:24.986Z,6.74
2017-11-14T10:52:24.331Z,6.78
2017-11-14T10:53:24.646Z,6.71
2017-11-14T10:54:24.638Z,6.78
2017-11-14T10:55:24.951Z,6.75
2017-11-14T10:56:24.953Z,6.85
2017-11-14T10:57:24.937Z,6.74
2017-11-14T10:58:24.710Z,6.85
2017-11-14T10:59:24.911Z,6.92
2017-11-14T11:00:24.896Z,6.9
2017-11-14T11:01:24.889Z,6.93
2017-11-14T11:02:24.885Z,6.93
2017-11-14T11:03:24.867Z,6.93
2017-11-14T11:04:24.860Z,7
2017-11-14T11:05:24.847Z,7
2017-11-14T11:06:24.515Z,7.03
2017-11-14T11:07:24.506Z,7.08
2017-11-14T11:08:24.819Z,7.14
2017-11-14T11:09:24.485Z,7.19
2017-11-14T11:10:24.806Z,7.1
2017-11-14T11:11:24.897Z,7.11
2017-11-14T11:12:24.456Z,7.19
2017-11-14T11:13:24.442Z,7.19
2017-11-14T11:14:24.778Z,7.25
2017-11-14T11:15:24.672Z,7.21
2017-11-14T11:16:24.413Z,7.32
2017-11-14T11:17:24.734Z,7.31
2017-11-14T11:18:24.720Z,7.31
2017-11-14T11:19:24.390Z,7.28
2017-11-14T11:20:24.378Z,7.32
2017-11-14T11:21:24.790Z,7.32
2017-11-14T11:22:24.680Z,7.32
2017-11-14T11:23:24.677Z,7.4
2017-11-14T11:24:24.662Z,7.39
2017-11-14T11:25:24.360Z,7.4
2017-11-14T11:26:24.316Z,7.4
2017-11-14T11:27:24.634Z,7.37
2017-11-14T11:28:24.618Z,7.46
2017-11-14T11:29:24.609Z,7.47
2017-11-14T11:30:23.953Z,7.46
2017-11-14T11:31:24.604Z,7.51
2017-11-14T11:32:24.408Z,7.51
2017-11-14T11:33:24.248Z,7.48
2017-11-14T11:34:24.242Z,7.5
2017-11-14T11:35:24.653Z,7.46
2017-11-14T11:36:24.540Z,7.46
2017-11-14T11:37:24.209Z,7.37
2017-11-14T11:38:24.520Z,7.48
2017-11-14T11:39:24.528Z,7.48
2017-11-14T11:40:24.613Z,7.48
2017-11-14T11:41:24.512Z,7.51
2017-11-14T11:42:24.490Z,7.5
2017-11-14T11:43:24.247Z,7.48
2017-11-14T11:44:24.141Z,7.47
2017-11-14T11:45:24.455Z,7.53
2017-11-14T11:46:24.219Z,7.51
2017-11-14T11:47:24.104Z,7.44
2017-11-14T11:48:24.096Z,7.41
2017-11-14T11:49:24.422Z,7.46
2017-11-14T11:50:24.077Z,7.37
2017-11-14T11:51:23.742Z,7.36
2017-11-14T11:52:23.733Z,7.4
2017-11-14T11:53:24.196Z,7.43
2017-11-14T11:54:24.373Z,7.36
2017-11-14T11:55:24.355Z,7.41
2017-11-14T11:56:24.345Z,7.31
2017-11-14T11:57:23.686Z,7.25
2017-11-14T11:58:24.322Z,7.26
2017-11-14T11:59:23.990Z,7.15
2017-11-14T12:00:24.313Z,7.08
2017-11-14T12:01:23.992Z,7
2017-11-14T12:02:23.960Z,6.87
2017-11-14T12:03:24.277Z,6.86
2017-11-14T12:04:24.263Z,6.82
2017-11-14T12:05:24.260Z,6.85
2017-11-14T12:06:23.918Z,6.95
2017-11-14T12:07:24.240Z,7.08
2017-11-14T12:08:24.223Z,7.11
2017-11-14T12:09:24.233Z,7.21
2017-11-14T12:10:24.204Z,7.25
2017-11-14T12:11:24.209Z,7.33
2017-11-14T12:12:24.187Z,7.39
2017-11-14T12:13:23.857Z,7.37
2017-11-14T12:14:24.172Z,7.36
2017-11-14T12:15:23.837Z,7.37
2017-11-14T12:16:23.498Z,7.47
2017-11-14T12:17:24.142Z,7.43
2017-11-14T12:18:24.129Z,7.37
2017-11-14T12:19:24.114Z,7.4
2017-11-14T12:20:23.781Z,7.29
2017-11-14T12:21:23.777Z,7.4
2017-11-14T12:22:24.085Z,7.4
2017-11-14T12:23:24.080Z,7.37
2017-11-14T12:24:23.747Z,7.47
2017-11-14T12:25:24.068Z,7.59
2017-11-14T12:26:24.047Z,7.56
2017-11-14T12:27:23.723Z,7.47
2017-11-14T12:28:24.035Z,7.56
2017-11-14T12:29:24.115Z,7.55
2017-11-14T12:30:23.686Z,7.56
2017-11-14T12:31:23.675Z,7.55
2017-11-14T12:32:23.991Z,7.46
2017-11-14T12:33:23.979Z,7.31
2017-11-14T12:34:23.643Z,7.31
2017-11-14T12:35:23.636Z,7.29
2017-11-14T12:36:23.956Z,7.46
2017-11-14T12:37:23.616Z,7.47
2017-11-14T12:38:23.607Z,7.48
2017-11-14T12:39:23.916Z,7.58
2017-11-14T12:40:24.020Z,7.39
2017-11-14T12:41:23.575Z,7.37
2017-11-14T12:42:23.888Z,7.22
2017-11-14T12:43:23.232Z,7.23
2017-11-14T12:44:23.871Z,7.28
2017-11-14T12:45:23.906Z,7.32
2017-11-14T12:46:23.860Z,7.39
2017-11-14T12:47:23.519Z,7.41
2017-11-14T12:48:23.833Z,7.46
2017-11-14T12:49:23.829Z,7.48
2017-11-14T12:50:23.910Z,7.56
2017-11-14T12:51:23.486Z,7.53
2017-11-14T12:52:23.790Z,7.64
2017-11-14T12:53:23.791Z,7.56
2017-11-14T12:54:23.449Z,7.62
2017-11-14T12:55:23.115Z,7.66
2017-11-14T12:56:23.855Z,7.74
2017-11-14T12:57:23.612Z,7.84
2017-11-14T12:58:23.610Z,7.77
2017-11-14T12:59:23.335Z,7.85
2017-11-14T13:00:23.728Z,7.8
2017-11-14T13:01:23.312Z,7.75
2017-11-14T13:02:23.663Z,7.81
2017-11-14T13:03:23.296Z,7.75
2017-11-14T13:04:23.283Z,7.69
2017-11-14T13:05:23.533Z,7.64
2017-11-14T13:06:23.108Z,7.56
2017-11-14T13:07:23.514Z,7.37
2017-11-14T13:08:23.517Z,7.29
2017-11-14T13:09:23.500Z,7.13
2017-11-14T13:10:23.225Z,7.25
2017-11-14T13:11:23.477Z,7.25
2017-11-14T13:12:23.209Z,7.26
2017-11-14T13:13:23.459Z,7.31
2017-11-14T13:14:23.189Z,7.26
2017-11-14T13:15:23.274Z,7.36
2017-11-14T13:16:23.169Z,7.33
2017-11-14T13:17:23.421Z,7.5
2017-11-14T13:18:23.145Z,7.48
2017-11-14T13:19:23.141Z,7.53
2017-11-14T13:20:23.582Z,7.53
2017-11-14T13:21:23.379Z,7.55
2017-11-14T13:22:23.368Z,7.78